sensor_id;sensor_type;location;lat;lon;timestamp;P1;durP1;ratioP1;P2;durP2;ratioP2
25503;SDS011;13410;52.114;5.718;2022-10-18T00:01:50;35.28;;;15.38;;
25503;SDS011;13410;52.114;5.718;2022-10-18T00:04:19;80.63;;;17.98;;
25503;SDS011;13410;52.114;5.718;2022-10-18T00:06:44;29.73;;;17.20;;
25503;SDS011;13410;52.114;5.718;2022-10-18T00:09:10;32.03;;;16.50;;
25503;SDS011;13410;52.114;5.718;2022-10-18T00:11:36;24.67;;;15.02;;
25503;SDS011;13410;52.114;5.718;2022-10-18T00:14:02;24.10;;;16.27;;
25503;SDS011;13410;52.114;5.718;2022-10-18T00:16:31;22.10;;;14.75;;
25503;SDS011;13410;52.114;5.718;2022-10-18T00:18:56;22.33;;;14.40;;
25503;SDS011;13410;52.114;5.718;2022-10-18T00:21:22;29.60;;;17.35;;
25503;SDS011;13410;52.114;5.718;2022-10-18T00:23:49;26.98;;;17.13;;
25503;SDS011;13410;52.114;5.718;2022-10-18T00:26:17;24.02;;;15.30;;
25503;SDS011;13410;52.114;5.718;2022-10-18T00:28:45;22.92;;;14.05;;
25503;SDS011;13410;52.114;5.718;2022-10-18T00:31:18;24.17;;;13.57;;
25503;SDS011;13410;52.114;5.718;2022-10-18T00:33:48;52.25;;;13.82;;
25503;SDS011;13410;52.114;5.718;2022-10-18T00:36:15;19.55;;;12.60;;
25503;SDS011;13410;52.114;5.718;2022-10-18T00:38:41;19.92;;;12.77;;
25503;SDS011;13410;52.114;5.718;2022-10-18T00:41:08;16.05;;;12.15;;
25503;SDS011;13410;52.114;5.718;2022-10-18T00:46:29;19.98;;;12.52;;
25503;SDS011;13410;52.114;5.718;2022-10-18T00:48:58;18.80;;;12.50;;
25503;SDS011;13410;52.114;5.718;2022-10-18T00:51:29;16.70;;;12.13;;
25503;SDS011;13410;52.114;5.718;2022-10-18T00:54:00;20.15;;;12.88;;
25503;SDS011;13410;52.114;5.718;2022-10-18T00:56:26;17.38;;;12.07;;
25503;SDS011;13410;52.114;5.718;2022-10-18T00:58:52;17.13;;;12.45;;
25503;SDS011;13410;52.114;5.718;2022-10-18T01:01:18;17.73;;;12.82;;
25503;SDS011;13410;52.114;5.718;2022-10-18T01:03:44;71.63;;;14.10;;
25503;SDS011;13410;52.114;5.718;2022-10-18T01:06:10;19.33;;;13.15;;
25503;SDS011;13410;52.114;5.718;2022-10-18T01:11:44;86.07;;;14.90;;
25503;SDS011;13410;52.114;5.718;2022-10-18T01:20:15;18.75;;;13.23;;
25503;SDS011;13410;52.114;5.718;2022-10-18T01:22:56;17.42;;;13.60;;
25503;SDS011;13410;52.114;5.718;2022-10-18T01:25:41;25.42;;;13.85;;
25503;SDS011;13410;52.114;5.718;2022-10-18T01:28:50;30.13;;;13.45;;
25503;SDS011;13410;52.114;5.718;2022-10-18T01:31:38;63.55;;;14.57;;
25503;SDS011;13410;52.114;5.718;2022-10-18T01:34:25;194.80;;;21.20;;
25503;SDS011;13410;52.114;5.718;2022-10-18T01:39:32;44.03;;;15.60;;
25503;SDS011;13410;52.114;5.718;2022-10-18T01:42:01;238.93;;;20.13;;
25503;SDS011;13410;52.114;5.718;2022-10-18T01:44:34;127.93;;;16.38;;
25503;SDS011;13410;52.114;5.718;2022-10-18T01:47:02;191.18;;;19.17;;
25503;SDS011;13410;52.114;5.718;2022-10-18T01:49:32;150.20;;;19.95;;
25503;SDS011;13410;52.114;5.718;2022-10-18T01:51:59;170.40;;;21.90;;
25503;SDS011;13410;52.114;5.718;2022-10-18T01:54:30;91.28;;;19.17;;
25503;SDS011;13410;52.114;5.718;2022-10-18T02:05:45;269.70;;;20.15;;
25503;SDS011;13410;52.114;5.718;2022-10-18T02:08:16;166.48;;;17.67;;
25503;SDS011;13410;52.114;5.718;2022-10-18T02:10:59;54.40;;;15.23;;
25503;SDS011;13410;52.114;5.718;2022-10-18T02:13:31;46.30;;;15.52;;
25503;SDS011;13410;52.114;5.718;2022-10-18T02:16:03;76.65;;;16.23;;
25503;SDS011;13410;52.114;5.718;2022-10-18T02:18:38;75.88;;;16.42;;
25503;SDS011;13410;52.114;5.718;2022-10-18T02:21:11;62.60;;;16.40;;
25503;SDS011;13410;52.114;5.718;2022-10-18T02:23:44;54.85;;;15.52;;
25503;SDS011;13410;52.114;5.718;2022-10-18T02:26:11;46.70;;;16.92;;
25503;SDS011;13410;52.114;5.718;2022-10-18T02:28:38;47.22;;;15.88;;
25503;SDS011;13410;52.114;5.718;2022-10-18T02:33:37;55.50;;;17.77;;
25503;SDS011;13410;52.114;5.718;2022-10-18T02:36:14;53.00;;;17.15;;
25503;SDS011;13410;52.114;5.718;2022-10-18T02:38:48;51.97;;;16.60;;
25503;SDS011;13410;52.114;5.718;2022-10-18T02:41:24;168.50;;;18.73;;
25503;SDS011;13410;52.114;5.718;2022-10-18T02:43:51;108.80;;;18.15;;
25503;SDS011;13410;52.114;5.718;2022-10-18T02:46:20;55.35;;;16.08;;
25503;SDS011;13410;52.114;5.718;2022-10-18T02:48:46;88.28;;;17.60;;
25503;SDS011;13410;52.114;5.718;2022-10-18T02:51:12;137.82;;;19.10;;
25503;SDS011;13410;52.114;5.718;2022-10-18T02:53:38;54.20;;;16.13;;
25503;SDS011;13410;52.114;5.718;2022-10-18T02:56:06;106.68;;;18.63;;
25503;SDS011;13410;52.114;5.718;2022-10-18T02:58:33;84.13;;;18.88;;
25503;SDS011;13410;52.114;5.718;2022-10-18T03:00:58;94.47;;;18.17;;
25503;SDS011;13410;52.114;5.718;2022-10-18T03:03:25;130.02;;;17.90;;
25503;SDS011;13410;52.114;5.718;2022-10-18T03:05:51;90.00;;;17.13;;
25503;SDS011;13410;52.114;5.718;2022-10-18T03:08:17;102.65;;;18.20;;
25503;SDS011;13410;52.114;5.718;2022-10-18T03:10:46;103.72;;;17.63;;
25503;SDS011;13410;52.114;5.718;2022-10-18T03:13:12;86.35;;;17.92;;
25503;SDS011;13410;52.114;5.718;2022-10-18T03:15:37;53.92;;;16.85;;
25503;SDS011;13410;52.114;5.718;2022-10-18T03:18:03;47.35;;;16.52;;
25503;SDS011;13410;52.114;5.718;2022-10-18T03:20:29;80.70;;;18.92;;
25503;SDS011;13410;52.114;5.718;2022-10-18T03:22:55;50.53;;;16.67;;
25503;SDS011;13410;52.114;5.718;2022-10-18T03:25:22;38.85;;;16.95;;
25503;SDS011;13410;52.114;5.718;2022-10-18T03:27:48;83.63;;;19.30;;
25503;SDS011;13410;52.114;5.718;2022-10-18T03:30:13;88.15;;;19.85;;
25503;SDS011;13410;52.114;5.718;2022-10-18T03:32:40;98.15;;;19.98;;
25503;SDS011;13410;52.114;5.718;2022-10-18T03:35:06;44.58;;;18.52;;
25503;SDS011;13410;52.114;5.718;2022-10-18T03:37:36;54.60;;;17.85;;
25503;SDS011;13410;52.114;5.718;2022-10-18T03:40:02;77.78;;;18.50;;
25503;SDS011;13410;52.114;5.718;2022-10-18T03:42:28;89.38;;;18.65;;
25503;SDS011;13410;52.114;5.718;2022-10-18T03:44:54;39.00;;;17.95;;
25503;SDS011;13410;52.114;5.718;2022-10-18T03:47:19;34.08;;;17.25;;
25503;SDS011;13410;52.114;5.718;2022-10-18T03:49:45;29.50;;;15.63;;
25503;SDS011;13410;52.114;5.718;2022-10-18T03:52:11;35.92;;;15.52;;
25503;SDS011;13410;52.114;5.718;2022-10-18T03:54:36;32.75;;;15.20;;
25503;SDS011;13410;52.114;5.718;2022-10-18T03:57:02;53.97;;;16.85;;
25503;SDS011;13410;52.114;5.718;2022-10-18T03:59:28;43.45;;;16.77;;
25503;SDS011;13410;52.114;5.718;2022-10-18T04:01:53;42.35;;;16.20;;
25503;SDS011;13410;52.114;5.718;2022-10-18T04:04:20;27.40;;;15.60;;
25503;SDS011;13410;52.114;5.718;2022-10-18T04:06:48;27.13;;;15.45;;
25503;SDS011;13410;52.114;5.718;2022-10-18T04:09:14;62.22;;;17.00;;
25503;SDS011;13410;52.114;5.718;2022-10-18T04:11:43;34.53;;;17.23;;
25503;SDS011;13410;52.114;5.718;2022-10-18T04:14:08;37.53;;;17.15;;
25503;SDS011;13410;52.114;5.718;2022-10-18T04:16:35;30.77;;;16.15;;
25503;SDS011;13410;52.114;5.718;2022-10-18T04:19:02;33.47;;;17.25;;
25503;SDS011;13410;52.114;5.718;2022-10-18T04:21:32;34.97;;;16.92;;
25503;SDS011;13410;52.114;5.718;2022-10-18T04:23:57;45.13;;;18.02;;
25503;SDS011;13410;52.114;5.718;2022-10-18T04:26:23;48.97;;;17.70;;
25503;SDS011;13410;52.114;5.718;2022-10-18T04:28:49;48.42;;;20.05;;
25503;SDS011;13410;52.114;5.718;2022-10-18T04:31:18;164.73;;;21.48;;
25503;SDS011;13410;52.114;5.718;2022-10-18T04:33:43;167.95;;;22.13;;
25503;SDS011;13410;52.114;5.718;2022-10-18T04:36:09;137.38;;;19.77;;
25503;SDS011;13410;52.114;5.718;2022-10-18T04:38:34;132.93;;;19.38;;
25503;SDS011;13410;52.114;5.718;2022-10-18T04:41:00;96.63;;;17.08;;
25503;SDS011;13410;52.114;5.718;2022-10-18T04:43:26;79.20;;;17.60;;
25503;SDS011;13410;52.114;5.718;2022-10-18T04:45:53;68.65;;;21.85;;
25503;SDS011;13410;52.114;5.718;2022-10-18T04:48:22;64.88;;;18.25;;
25503;SDS011;13410;52.114;5.718;2022-10-18T04:50:48;39.80;;;17.13;;
25503;SDS011;13410;52.114;5.718;2022-10-18T04:53:15;34.38;;;16.40;;
25503;SDS011;13410;52.114;5.718;2022-10-18T04:55:47;30.58;;;15.77;;
25503;SDS011;13410;52.114;5.718;2022-10-18T04:58:17;56.05;;;19.35;;
25503;SDS011;13410;52.114;5.718;2022-10-18T05:00:44;40.72;;;19.08;;
25503;SDS011;13410;52.114;5.718;2022-10-18T05:03:10;53.13;;;19.55;;
25503;SDS011;13410;52.114;5.718;2022-10-18T05:05:37;60.78;;;20.20;;
25503;SDS011;13410;52.114;5.718;2022-10-18T05:08:06;139.15;;;22.88;;
25503;SDS011;13410;52.114;5.718;2022-10-18T05:10:31;74.78;;;20.48;;
25503;SDS011;13410;52.114;5.718;2022-10-18T05:12:57;275.77;;;60.15;;
25503;SDS011;13410;52.114;5.718;2022-10-18T05:15:23;54.72;;;27.30;;
25503;SDS011;13410;52.114;5.718;2022-10-18T05:17:56;87.80;;;30.13;;
25503;SDS011;13410;52.114;5.718;2022-10-18T05:20:21;50.97;;;15.83;;
25503;SDS011;13410;52.114;5.718;2022-10-18T05:22:47;55.40;;;15.50;;
25503;SDS011;13410;52.114;5.718;2022-10-18T05:25:12;47.08;;;14.50;;
25503;SDS011;13410;52.114;5.718;2022-10-18T05:27:40;28.48;;;14.13;;
25503;SDS011;13410;52.114;5.718;2022-10-18T05:30:06;33.20;;;15.00;;
25503;SDS011;13410;52.114;5.718;2022-10-18T05:32:32;36.42;;;15.85;;
25503;SDS011;13410;52.114;5.718;2022-10-18T05:34:57;29.55;;;16.08;;
25503;SDS011;13410;52.114;5.718;2022-10-18T05:37:23;34.92;;;16.45;;
25503;SDS011;13410;52.114;5.718;2022-10-18T05:39:49;73.85;;;17.50;;
25503;SDS011;13410;52.114;5.718;2022-10-18T05:42:14;92.70;;;18.30;;
25503;SDS011;13410;52.114;5.718;2022-10-18T05:44:40;75.93;;;15.70;;
25503;SDS011;13410;52.114;5.718;2022-10-18T05:47:05;70.82;;;14.70;;
25503;SDS011;13410;52.114;5.718;2022-10-18T05:49:34;79.25;;;15.60;;
25503;SDS011;13410;52.114;5.718;2022-10-18T05:52:00;91.38;;;15.38;;
25503;SDS011;13410;52.114;5.718;2022-10-18T05:54:26;63.30;;;13.60;;
25503;SDS011;13410;52.114;5.718;2022-10-18T05:56:51;74.20;;;14.30;;
25503;SDS011;13410;52.114;5.718;2022-10-18T05:59:17;44.95;;;13.48;;
25503;SDS011;13410;52.114;5.718;2022-10-18T06:01:42;88.55;;;15.55;;
25503;SDS011;13410;52.114;5.718;2022-10-18T06:04:08;53.20;;;14.27;;
25503;SDS011;13410;52.114;5.718;2022-10-18T06:06:34;67.05;;;14.63;;
25503;SDS011;13410;52.114;5.718;2022-10-18T06:09:03;30.40;;;13.02;;
25503;SDS011;13410;52.114;5.718;2022-10-18T06:11:30;49.88;;;14.00;;
25503;SDS011;13410;52.114;5.718;2022-10-18T06:13:56;86.50;;;16.02;;
25503;SDS011;13410;52.114;5.718;2022-10-18T06:16:23;62.67;;;14.48;;
25503;SDS011;13410;52.114;5.718;2022-10-18T06:18:51;51.03;;;13.95;;
25503;SDS011;13410;52.114;5.718;2022-10-18T06:21:21;58.08;;;13.88;;
25503;SDS011;13410;52.114;5.718;2022-10-18T06:23:49;86.45;;;14.32;;
25503;SDS011;13410;52.114;5.718;2022-10-18T06:26:20;45.90;;;13.35;;
25503;SDS011;13410;52.114;5.718;2022-10-18T06:28:46;50.85;;;13.18;;
25503;SDS011;13410;52.114;5.718;2022-10-18T06:31:12;74.22;;;14.43;;
25503;SDS011;13410;52.114;5.718;2022-10-18T06:33:38;53.70;;;13.35;;
25503;SDS011;13410;52.114;5.718;2022-10-18T06:38:31;100.85;;;13.63;;
25503;SDS011;13410;52.114;5.718;2022-10-18T06:40:57;86.57;;;13.70;;
25503;SDS011;13410;52.114;5.718;2022-10-18T06:43:23;43.58;;;13.15;;
25503;SDS011;13410;52.114;5.718;2022-10-18T06:45:50;77.68;;;13.68;;
25503;SDS011;13410;52.114;5.718;2022-10-18T06:48:17;61.00;;;13.00;;
25503;SDS011;13410;52.114;5.718;2022-10-18T06:50:49;55.33;;;13.07;;
25503;SDS011;13410;52.114;5.718;2022-10-18T06:53:26;30.35;;;12.43;;
25503;SDS011;13410;52.114;5.718;2022-10-18T06:55:59;67.03;;;13.70;;
25503;SDS011;13410;52.114;5.718;2022-10-18T06:58:27;120.00;;;15.38;;
25503;SDS011;13410;52.114;5.718;2022-10-18T07:00:53;94.38;;;14.25;;
25503;SDS011;13410;52.114;5.718;2022-10-18T07:03:19;88.10;;;12.52;;
25503;SDS011;13410;52.114;5.718;2022-10-18T07:05:46;38.78;;;12.43;;
25503;SDS011;13410;52.114;5.718;2022-10-18T07:08:12;117.00;;;14.43;;
25503;SDS011;13410;52.114;5.718;2022-10-18T07:10:38;94.68;;;12.95;;
25503;SDS011;13410;52.114;5.718;2022-10-18T07:13:04;80.18;;;13.98;;
25503;SDS011;13410;52.114;5.718;2022-10-18T07:15:29;97.80;;;13.85;;
25503;SDS011;13410;52.114;5.718;2022-10-18T07:17:55;59.42;;;12.00;;
25503;SDS011;13410;52.114;5.718;2022-10-18T07:20:21;78.30;;;12.27;;
25503;SDS011;13410;52.114;5.718;2022-10-18T07:22:46;52.92;;;11.05;;
25503;SDS011;13410;52.114;5.718;2022-10-18T07:25:12;47.97;;;11.35;;
25503;SDS011;13410;52.114;5.718;2022-10-18T07:27:38;54.70;;;11.48;;
25503;SDS011;13410;52.114;5.718;2022-10-18T07:30:06;40.30;;;10.98;;
25503;SDS011;13410;52.114;5.718;2022-10-18T07:32:32;39.92;;;10.48;;
25503;SDS011;13410;52.114;5.718;2022-10-18T07:34:58;33.53;;;10.88;;
25503;SDS011;13410;52.114;5.718;2022-10-18T07:37:25;34.55;;;11.35;;
25503;SDS011;13410;52.114;5.718;2022-10-18T07:39:50;59.05;;;11.98;;
25503;SDS011;13410;52.114;5.718;2022-10-18T07:42:16;59.15;;;11.10;;
25503;SDS011;13410;52.114;5.718;2022-10-18T07:44:42;51.28;;;8.93;;
25503;SDS011;13410;52.114;5.718;2022-10-18T07:47:07;70.85;;;9.07;;
25503;SDS011;13410;52.114;5.718;2022-10-18T07:49:33;122.35;;;11.65;;
25503;SDS011;13410;52.114;5.718;2022-10-18T07:51:58;86.90;;;10.73;;
25503;SDS011;13410;52.114;5.718;2022-10-18T07:54:25;94.28;;;10.43;;
25503;SDS011;13410;52.114;5.718;2022-10-18T07:56:50;55.30;;;8.95;;
25503;SDS011;13410;52.114;5.718;2022-10-18T07:59:16;75.65;;;10.57;;
25503;SDS011;13410;52.114;5.718;2022-10-18T08:01:42;84.43;;;10.68;;
25503;SDS011;13410;52.114;5.718;2022-10-18T08:04:07;62.40;;;9.75;;
25503;SDS011;13410;52.114;5.718;2022-10-18T08:06:34;55.38;;;9.43;;
25503;SDS011;13410;52.114;5.718;2022-10-18T08:09:00;61.35;;;9.20;;
25503;SDS011;13410;52.114;5.718;2022-10-18T08:11:25;45.35;;;8.00;;
25503;SDS011;13410;52.114;5.718;2022-10-18T08:13:51;46.10;;;9.02;;
25503;SDS011;13410;52.114;5.718;2022-10-18T08:16:19;38.53;;;8.65;;
25503;SDS011;13410;52.114;5.718;2022-10-18T08:18:46;38.47;;;10.90;;
25503;SDS011;13410;52.114;5.718;2022-10-18T08:21:12;55.20;;;10.32;;
25503;SDS011;13410;52.114;5.718;2022-10-18T08:23:39;52.95;;;9.85;;
25503;SDS011;13410;52.114;5.718;2022-10-18T08:26:06;46.65;;;8.80;;
25503;SDS011;13410;52.114;5.718;2022-10-18T08:28:34;50.15;;;8.75;;
25503;SDS011;13410;52.114;5.718;2022-10-18T08:31:06;40.72;;;9.38;;
25503;SDS011;13410;52.114;5.718;2022-10-18T08:33:35;23.13;;;9.15;;
25503;SDS011;13410;52.114;5.718;2022-10-18T08:36:03;17.17;;;8.68;;
25503;SDS011;13410;52.114;5.718;2022-10-18T08:38:31;17.45;;;8.25;;
25503;SDS011;13410;52.114;5.718;2022-10-18T08:41:05;20.55;;;9.00;;
25503;SDS011;13410;52.114;5.718;2022-10-18T08:46:27;17.08;;;9.00;;
25503;SDS011;13410;52.114;5.718;2022-10-18T08:48:53;16.52;;;9.25;;
25503;SDS011;13410;52.114;5.718;2022-10-18T08:54:10;11.90;;;7.38;;
25503;SDS011;13410;52.114;5.718;2022-10-18T08:56:39;14.88;;;8.70;;
25503;SDS011;13410;52.114;5.718;2022-10-18T09:10:06;16.33;;;8.70;;
25503;SDS011;13410;52.114;5.718;2022-10-18T09:13:01;12.35;;;8.13;;
25503;SDS011;13410;52.114;5.718;2022-10-18T09:19:15;23.77;;;9.68;;
25503;SDS011;13410;52.114;5.718;2022-10-18T09:21:57;19.65;;;10.05;;
25503;SDS011;13410;52.114;5.718;2022-10-18T09:24:33;15.20;;;8.18;;
25503;SDS011;13410;52.114;5.718;2022-10-18T09:27:04;13.85;;;7.70;;
25503;SDS011;13410;52.114;5.718;2022-10-18T09:29:54;13.93;;;7.80;;
25503;SDS011;13410;52.114;5.718;2022-10-18T09:35:10;15.38;;;7.57;;
25503;SDS011;13410;52.114;5.718;2022-10-18T09:37:38;15.52;;;7.18;;
25503;SDS011;13410;52.114;5.718;2022-10-18T09:40:11;15.73;;;7.80;;
25503;SDS011;13410;52.114;5.718;2022-10-18T09:42:54;12.52;;;8.00;;
25503;SDS011;13410;52.114;5.718;2022-10-18T09:45:34;15.93;;;6.45;;
25503;SDS011;13410;52.114;5.718;2022-10-18T09:53:29;14.82;;;5.72;;
25503;SDS011;13410;52.114;5.718;2022-10-18T09:56:04;12.02;;;5.15;;
25503;SDS011;13410;52.114;5.718;2022-10-18T09:58:46;14.73;;;5.35;;
25503;SDS011;13410;52.114;5.718;2022-10-18T10:04:08;15.10;;;4.93;;
25503;SDS011;13410;52.114;5.718;2022-10-18T10:06:34;8.70;;;4.63;;
25503;SDS011;13410;52.114;5.718;2022-10-18T10:11:39;8.05;;;3.65;;
25503;SDS011;13410;52.114;5.718;2022-10-18T10:14:17;11.38;;;2.63;;
25503;SDS011;13410;52.114;5.718;2022-10-18T10:17:01;7.70;;;2.15;;
25503;SDS011;13410;52.114;5.718;2022-10-18T10:19:37;8.00;;;2.80;;
25503;SDS011;13410;52.114;5.718;2022-10-18T10:22:23;11.10;;;2.05;;
25503;SDS011;13410;52.114;5.718;2022-10-18T10:24:52;7.88;;;2.20;;
25503;SDS011;13410;52.114;5.718;2022-10-18T10:27:29;8.07;;;1.90;;
25503;SDS011;13410;52.114;5.718;2022-10-18T10:29:58;7.68;;;1.73;;
25503;SDS011;13410;52.114;5.718;2022-10-18T10:32:27;5.35;;;1.80;;
25503;SDS011;13410;52.114;5.718;2022-10-18T10:34:55;5.80;;;1.80;;
25503;SDS011;13410;52.114;5.718;2022-10-18T10:42:56;7.97;;;2.10;;
25503;SDS011;13410;52.114;5.718;2022-10-18T10:45:42;9.32;;;2.47;;
25503;SDS011;13410;52.114;5.718;2022-10-18T10:48:24;9.90;;;2.67;;
25503;SDS011;13410;52.114;5.718;2022-10-18T10:50:57;9.95;;;2.72;;
25503;SDS011;13410;52.114;5.718;2022-10-18T10:53:41;5.63;;;2.60;;
25503;SDS011;13410;52.114;5.718;2022-10-18T10:56:30;6.80;;;2.85;;
25503;SDS011;13410;52.114;5.718;2022-10-18T10:59:14;10.13;;;2.90;;
25503;SDS011;13410;52.114;5.718;2022-10-18T11:01:43;8.93;;;3.20;;
25503;SDS011;13410;52.114;5.718;2022-10-18T11:04:28;9.80;;;3.35;;
25503;SDS011;13410;52.114;5.718;2022-10-18T11:12:15;7.88;;;2.22;;
25503;SDS011;13410;52.114;5.718;2022-10-18T11:14:51;5.95;;;2.20;;
25503;SDS011;13410;52.114;5.718;2022-10-18T11:17:36;8.15;;;2.20;;
25503;SDS011;13410;52.114;5.718;2022-10-18T11:23:37;4.28;;;1.63;;
25503;SDS011;13410;52.114;5.718;2022-10-18T11:37:12;10.52;;;2.13;;
25503;SDS011;13410;52.114;5.718;2022-10-18T11:42:54;6.32;;;1.65;;
25503;SDS011;13410;52.114;5.718;2022-10-18T11:46:03;8.52;;;1.25;;
25503;SDS011;13410;52.114;5.718;2022-10-18T12:02:40;4.72;;;1.10;;
25503;SDS011;13410;52.114;5.718;2022-10-18T12:05:28;5.38;;;0.90;;
25503;SDS011;13410;52.114;5.718;2022-10-18T12:08:03;5.90;;;1.00;;
25503;SDS011;13410;52.114;5.718;2022-10-18T12:10:32;4.32;;;0.70;;
25503;SDS011;13410;52.114;5.718;2022-10-18T12:13:01;2.97;;;0.68;;
25503;SDS011;13410;52.114;5.718;2022-10-18T12:15:33;6.93;;;1.00;;
25503;SDS011;13410;52.114;5.718;2022-10-18T12:18:04;3.35;;;0.80;;
25503;SDS011;13410;52.114;5.718;2022-10-18T12:20:40;7.65;;;0.90;;
25503;SDS011;13410;52.114;5.718;2022-10-18T12:23:11;6.47;;;0.82;;
25503;SDS011;13410;52.114;5.718;2022-10-18T12:25:40;6.15;;;0.77;;
25503;SDS011;13410;52.114;5.718;2022-10-18T12:33:40;3.78;;;0.80;;
25503;SDS011;13410;52.114;5.718;2022-10-18T12:39:04;3.38;;;0.70;;
25503;SDS011;13410;52.114;5.718;2022-10-18T12:41:34;3.13;;;0.80;;
25503;SDS011;13410;52.114;5.718;2022-10-18T12:44:04;6.53;;;1.08;;
25503;SDS011;13410;52.114;5.718;2022-10-18T12:49:19;4.60;;;0.70;;
25503;SDS011;13410;52.114;5.718;2022-10-18T12:51:50;3.58;;;0.77;;
25503;SDS011;13410;52.114;5.718;2022-10-18T12:54:20;3.95;;;0.77;;
25503;SDS011;13410;52.114;5.718;2022-10-18T12:56:52;3.05;;;0.60;;
25503;SDS011;13410;52.114;5.718;2022-10-18T13:09:22;3.38;;;0.80;;
25503;SDS011;13410;52.114;5.718;2022-10-18T13:11:52;5.03;;;0.80;;
25503;SDS011;13410;52.114;5.718;2022-10-18T13:17:24;5.43;;;0.80;;
25503;SDS011;13410;52.114;5.718;2022-10-18T13:36:44;5.82;;;1.00;;
25503;SDS011;13410;52.114;5.718;2022-10-18T13:39:20;5.25;;;1.13;;
25503;SDS011;13410;52.114;5.718;2022-10-18T14:06:51;6.82;;;1.38;;
25503;SDS011;13410;52.114;5.718;2022-10-18T14:09:22;5.43;;;1.88;;
25503;SDS011;13410;52.114;5.718;2022-10-18T14:12:00;4.65;;;0.80;;
25503;SDS011;13410;52.114;5.718;2022-10-18T14:20:33;3.08;;;0.85;;
25503;SDS011;13410;52.114;5.718;2022-10-18T14:23:04;5.97;;;0.80;;
25503;SDS011;13410;52.114;5.718;2022-10-18T14:25:45;7.97;;;0.85;;
25503;SDS011;13410;52.114;5.718;2022-10-18T14:28:29;6.10;;;0.90;;
25503;SDS011;13410;52.114;5.718;2022-10-18T14:30:55;15.10;;;7.15;;
25503;SDS011;13410;52.114;5.718;2022-10-18T14:36:14;9.45;;;1.85;;
25503;SDS011;13410;52.114;5.718;2022-10-18T14:41:22;8.10;;;2.42;;
25503;SDS011;13410;52.114;5.718;2022-10-18T14:43:50;11.07;;;4.13;;
25503;SDS011;13410;52.114;5.718;2022-10-18T14:46:18;4.95;;;1.25;;
25503;SDS011;13410;52.114;5.718;2022-10-18T14:48:59;11.57;;;3.72;;
25503;SDS011;13410;52.114;5.718;2022-10-18T14:51:26;17.45;;;10.77;;
25503;SDS011;13410;52.114;5.718;2022-10-18T14:53:56;15.48;;;7.03;;
25503;SDS011;13410;52.114;5.718;2022-10-18T14:56:24;8.52;;;2.03;;
25503;SDS011;13410;52.114;5.718;2022-10-18T14:58:51;8.65;;;2.97;;
25503;SDS011;13410;52.114;5.718;2022-10-18T15:01:19;8.63;;;1.63;;
25503;SDS011;13410;52.114;5.718;2022-10-18T15:03:48;16.55;;;9.13;;
25503;SDS011;13410;52.114;5.718;2022-10-18T15:06:15;10.95;;;5.63;;
25503;SDS011;13410;52.114;5.718;2022-10-18T15:08:43;6.88;;;2.97;;
25503;SDS011;13410;52.114;5.718;2022-10-18T15:11:12;11.30;;;3.35;;
25503;SDS011;13410;52.114;5.718;2022-10-18T15:13:50;8.95;;;4.10;;
25503;SDS011;13410;52.114;5.718;2022-10-18T15:16:23;10.02;;;3.00;;
25503;SDS011;13410;52.114;5.718;2022-10-18T15:21:25;7.45;;;2.13;;
25503;SDS011;13410;52.114;5.718;2022-10-18T15:23:51;11.38;;;4.32;;
25503;SDS011;13410;52.114;5.718;2022-10-18T15:26:27;8.45;;;2.95;;
25503;SDS011;13410;52.114;5.718;2022-10-18T15:28:54;12.10;;;4.30;;
25503;SDS011;13410;52.114;5.718;2022-10-18T15:31:32;122.70;;;73.53;;
25503;SDS011;13410;52.114;5.718;2022-10-18T15:34:21;24.67;;;15.30;;
25503;SDS011;13410;52.114;5.718;2022-10-18T15:36:47;21.92;;;13.25;;
25503;SDS011;13410;52.114;5.718;2022-10-18T15:39:15;42.38;;;19.83;;
25503;SDS011;13410;52.114;5.718;2022-10-18T15:41:47;15.57;;;8.30;;
25503;SDS011;13410;52.114;5.718;2022-10-18T15:44:22;22.42;;;12.23;;
25503;SDS011;13410;52.114;5.718;2022-10-18T15:46:49;16.17;;;8.00;;
25503;SDS011;13410;52.114;5.718;2022-10-18T15:51:49;10.77;;;4.45;;
25503;SDS011;13410;52.114;5.718;2022-10-18T15:54:39;16.63;;;8.43;;
25503;SDS011;13410;52.114;5.718;2022-10-18T15:57:08;10.63;;;2.88;;
25503;SDS011;13410;52.114;5.718;2022-10-18T15:59:34;11.52;;;4.25;;
25503;SDS011;13410;52.114;5.718;2022-10-18T16:02:08;8.30;;;3.20;;
25503;SDS011;13410;52.114;5.718;2022-10-18T16:04:38;8.07;;;2.22;;
25503;SDS011;13410;52.114;5.718;2022-10-18T16:07:03;11.48;;;4.50;;
25503;SDS011;13410;52.114;5.718;2022-10-18T16:09:29;15.15;;;8.18;;
25503;SDS011;13410;52.114;5.718;2022-10-18T16:11:54;18.30;;;10.75;;
25503;SDS011;13410;52.114;5.718;2022-10-18T16:14:22;10.95;;;4.13;;
25503;SDS011;13410;52.114;5.718;2022-10-18T16:16:50;12.15;;;3.08;;
25503;SDS011;13410;52.114;5.718;2022-10-18T16:19:18;10.82;;;2.90;;
25503;SDS011;13410;52.114;5.718;2022-10-18T16:21:46;8.48;;;4.95;;
25503;SDS011;13410;52.114;5.718;2022-10-18T16:24:13;14.73;;;4.32;;
25503;SDS011;13410;52.114;5.718;2022-10-18T16:26:39;16.13;;;4.15;;
25503;SDS011;13410;52.114;5.718;2022-10-18T16:29:04;9.32;;;2.63;;
25503;SDS011;13410;52.114;5.718;2022-10-18T16:31:32;11.13;;;2.55;;
25503;SDS011;13410;52.114;5.718;2022-10-18T16:33:58;17.08;;;4.93;;
25503;SDS011;13410;52.114;5.718;2022-10-18T16:36:25;8.52;;;3.13;;
25503;SDS011;13410;52.114;5.718;2022-10-18T16:41:21;13.70;;;4.75;;
25503;SDS011;13410;52.114;5.718;2022-10-18T16:43:48;14.85;;;6.50;;
25503;SDS011;13410;52.114;5.718;2022-10-18T16:46:15;14.48;;;4.75;;
25503;SDS011;13410;52.114;5.718;2022-10-18T16:48:44;20.27;;;3.42;;
25503;SDS011;13410;52.114;5.718;2022-10-18T16:51:11;12.45;;;3.35;;
25503;SDS011;13410;52.114;5.718;2022-10-18T16:53:36;17.75;;;6.95;;
25503;SDS011;13410;52.114;5.718;2022-10-18T16:56:03;15.75;;;4.70;;
25503;SDS011;13410;52.114;5.718;2022-10-18T16:58:30;11.88;;;4.38;;
25503;SDS011;13410;52.114;5.718;2022-10-18T17:00:57;19.27;;;5.43;;
25503;SDS011;13410;52.114;5.718;2022-10-18T17:03:31;15.18;;;3.67;;
25503;SDS011;13410;52.114;5.718;2022-10-18T17:05:57;18.77;;;6.10;;
25503;SDS011;13410;52.114;5.718;2022-10-18T17:08:24;19.00;;;7.85;;
25503;SDS011;13410;52.114;5.718;2022-10-18T17:10:51;16.60;;;6.55;;
25503;SDS011;13410;52.114;5.718;2022-10-18T17:13:19;20.45;;;6.90;;
25503;SDS011;13410;52.114;5.718;2022-10-18T17:15:46;39.42;;;17.98;;
25503;SDS011;13410;52.114;5.718;2022-10-18T17:18:13;47.58;;;21.80;;
25503;SDS011;13410;52.114;5.718;2022-10-18T17:20:50;43.13;;;21.98;;
25503;SDS011;13410;52.114;5.718;2022-10-18T17:23:16;75.68;;;41.15;;
25503;SDS011;13410;52.114;5.718;2022-10-18T17:25:42;66.35;;;31.33;;
25503;SDS011;13410;52.114;5.718;2022-10-18T17:28:09;25.60;;;11.02;;
25503;SDS011;13410;52.114;5.718;2022-10-18T17:30:37;33.10;;;15.30;;
25503;SDS011;13410;52.114;5.718;2022-10-18T17:33:03;46.75;;;20.27;;
25503;SDS011;13410;52.114;5.718;2022-10-18T17:35:29;87.45;;;43.90;;
25503;SDS011;13410;52.114;5.718;2022-10-18T17:37:54;99.32;;;46.70;;
25503;SDS011;13410;52.114;5.718;2022-10-18T17:40:20;111.90;;;52.40;;
25503;SDS011;13410;52.114;5.718;2022-10-18T17:42:51;99.25;;;49.08;;
25503;SDS011;13410;52.114;5.718;2022-10-18T17:45:18;105.93;;;55.00;;
25503;SDS011;13410;52.114;5.718;2022-10-18T17:47:45;68.75;;;34.42;;
25503;SDS011;13410;52.114;5.718;2022-10-18T17:50:11;69.35;;;39.10;;
25503;SDS011;13410;52.114;5.718;2022-10-18T17:52:43;79.13;;;38.78;;